sensor_id;sensor_type;location;lat;lon;timestamp;P1;durP1;ratioP1;P2;durP2;ratioP2
72882;SDS011;61017;37.812;-122.286;2023-11-18T00:00:49;3.75;;;2.20;;
72882;SDS011;61017;37.812;-122.286;2023-11-18T00:02:21;3.63;;;2.25;;
72882;SDS011;61017;37.812;-122.286;2023-11-18T00:03:52;3.85;;;2.40;;
72882;SDS011;61017;37.812;-122.286;2023-11-18T00:05:24;4.22;;;2.35;;
72882;SDS011;61017;37.812;-122.286;2023-11-18T00:06:55;3.92;;;2.13;;
72882;SDS011;61017;37.812;-122.286;2023-11-18T00:08:27;4.88;;;2.55;;
72882;SDS011;61017;37.812;-122.286;2023-11-18T00:09:58;3.15;;;2.25;;
72882;SDS011;61017;37.812;-122.286;2023-11-18T00:11:30;3.08;;;2.10;;
72882;SDS011;61017;37.812;-122.286;2023-11-18T00:13:01;4.20;;;2.33;;
72882;SDS011;61017;37.812;-122.286;2023-11-18T00:14:33;3.25;;;2.25;;
72882;SDS011;61017;37.812;-122.286;2023-11-18T00:16:05;4.53;;;2.40;;
72882;SDS011;61017;37.812;-122.286;2023-11-18T00:17:37;4.65;;;2.17;;
72882;SDS011;61017;37.812;-122.286;2023-11-18T00:19:09;5.35;;;2.22;;
72882;SDS011;61017;37.812;-122.286;2023-11-18T00:20:40;3.53;;;2.20;;
72882;SDS011;61017;37.812;-122.286;2023-11-18T00:22:12;3.65;;;2.28;;
72882;SDS011;61017;37.812;-122.286;2023-11-18T00:23:44;3.47;;;2.20;;
72882;SDS011;61017;37.812;-122.286;2023-11-18T00:25:15;3.95;;;2.30;;
72882;SDS011;61017;37.812;-122.286;2023-11-18T00:26:47;4.40;;;2.30;;
72882;SDS011;61017;37.812;-122.286;2023-11-18T00:28:18;3.53;;;2.30;;
72882;SDS011;61017;37.812;-122.286;2023-11-18T00:29:50;4.03;;;2.10;;
72882;SDS011;61017;37.812;-122.286;2023-11-18T00:31:21;3.25;;;2.00;;
72882;SDS011;61017;37.812;-122.286;2023-11-18T00:32:53;3.65;;;2.35;;
72882;SDS011;61017;37.812;-122.286;2023-11-18T00:34:24;3.10;;;2.08;;
72882;SDS011;61017;37.812;-122.286;2023-11-18T00:35:56;3.35;;;2.20;;
72882;SDS011;61017;37.812;-122.286;2023-11-18T00:37:27;4.05;;;2.40;;
72882;SDS011;61017;37.812;-122.286;2023-11-18T00:38:59;3.38;;;2.20;;
72882;SDS011;61017;37.812;-122.286;2023-11-18T00:40:30;3.83;;;2.30;;
72882;SDS011;61017;37.812;-122.286;2023-11-18T00:42:02;3.15;;;1.98;;
72882;SDS011;61017;37.812;-122.286;2023-11-18T00:43:34;3.75;;;2.00;;
72882;SDS011;61017;37.812;-122.286;2023-11-18T00:45:05;3.28;;;2.10;;
72882;SDS011;61017;37.812;-122.286;2023-11-18T00:46:37;3.77;;;2.37;;
72882;SDS011;61017;37.812;-122.286;2023-11-18T00:48:09;2.88;;;1.95;;
72882;SDS011;61017;37.812;-122.286;2023-11-18T00:49:41;3.85;;;2.15;;
72882;SDS011;61017;37.812;-122.286;2023-11-18T00:51:12;4.28;;;2.33;;
72882;SDS011;61017;37.812;-122.286;2023-11-18T00:52:44;3.47;;;2.33;;
72882;SDS011;61017;37.812;-122.286;2023-11-18T00:54:15;2.80;;;1.98;;
72882;SDS011;61017;37.812;-122.286;2023-11-18T00:55:47;3.80;;;2.08;;
72882;SDS011;61017;37.812;-122.286;2023-11-18T00:57:18;2.83;;;2.20;;
72882;SDS011;61017;37.812;-122.286;2023-11-18T00:58:50;3.92;;;2.15;;
72882;SDS011;61017;37.812;-122.286;2023-11-18T01:00:21;3.28;;;2.10;;
72882;SDS011;61017;37.812;-122.286;2023-11-18T01:01:53;3.42;;;2.17;;
72882;SDS011;61017;37.812;-122.286;2023-11-18T01:03:24;4.20;;;2.35;;
72882;SDS011;61017;37.812;-122.286;2023-11-18T01:04:56;3.60;;;2.20;;
72882;SDS011;61017;37.812;-122.286;2023-11-18T01:06:28;3.03;;;2.22;;
72882;SDS011;61017;37.812;-122.286;2023-11-18T01:07:59;3.78;;;2.38;;
72882;SDS011;61017;37.812;-122.286;2023-11-18T01:09:31;3.42;;;2.20;;
72882;SDS011;61017;37.812;-122.286;2023-11-18T01:11:02;4.60;;;2.53;;
72882;SDS011;61017;37.812;-122.286;2023-11-18T01:12:34;3.80;;;2.10;;
72882;SDS011;61017;37.812;-122.286;2023-11-18T01:14:06;3.85;;;2.50;;
72882;SDS011;61017;37.812;-122.286;2023-11-18T01:15:37;4.13;;;2.30;;
72882;SDS011;61017;37.812;-122.286;2023-11-18T01:17:09;3.78;;;2.20;;
72882;SDS011;61017;37.812;-122.286;2023-11-18T01:18:41;3.13;;;2.38;;
72882;SDS011;61017;37.812;-122.286;2023-11-18T01:20:13;3.50;;;2.33;;
72882;SDS011;61017;37.812;-122.286;2023-11-18T01:21:44;3.00;;;2.20;;
72882;SDS011;61017;37.812;-122.286;2023-11-18T01:23:16;3.53;;;2.30;;
72882;SDS011;61017;37.812;-122.286;2023-11-18T01:24:47;3.90;;;2.08;;
72882;SDS011;61017;37.812;-122.286;2023-11-18T01:26:19;3.92;;;2.17;;
72882;SDS011;61017;37.812;-122.286;2023-11-18T01:27:50;3.50;;;2.20;;
72882;SDS011;61017;37.812;-122.286;2023-11-18T01:29:22;3.22;;;2.20;;
72882;SDS011;61017;37.812;-122.286;2023-11-18T01:30:54;4.45;;;2.33;;
72882;SDS011;61017;37.812;-122.286;2023-11-18T01:32:26;3.90;;;2.40;;
72882;SDS011;61017;37.812;-122.286;2023-11-18T01:33:57;4.15;;;2.38;;
72882;SDS011;61017;37.812;-122.286;2023-11-18T01:35:29;4.15;;;2.30;;
72882;SDS011;61017;37.812;-122.286;2023-11-18T01:37:00;3.97;;;2.10;;
72882;SDS011;61017;37.812;-122.286;2023-11-18T01:38:32;3.25;;;2.25;;
72882;SDS011;61017;37.812;-122.286;2023-11-18T01:40:04;3.80;;;2.05;;
72882;SDS011;61017;37.812;-122.286;2023-11-18T01:41:36;5.35;;;2.25;;
72882;SDS011;61017;37.812;-122.286;2023-11-18T01:43:11;4.68;;;2.40;;
72882;SDS011;61017;37.812;-122.286;2023-11-18T01:44:42;3.20;;;2.28;;
72882;SDS011;61017;37.812;-122.286;2023-11-18T01:46:15;3.70;;;2.10;;
72882;SDS011;61017;37.812;-122.286;2023-11-18T01:47:48;4.18;;;2.30;;
72882;SDS011;61017;37.812;-122.286;2023-11-18T01:49:20;3.93;;;2.17;;
72882;SDS011;61017;37.812;-122.286;2023-11-18T01:52:27;3.90;;;2.40;;
72882;SDS011;61017;37.812;-122.286;2023-11-18T01:53:59;3.47;;;2.42;;
72882;SDS011;61017;37.812;-122.286;2023-11-18T01:55:31;5.32;;;2.20;;
72882;SDS011;61017;37.812;-122.286;2023-11-18T01:57:02;3.92;;;2.33;;
72882;SDS011;61017;37.812;-122.286;2023-11-18T01:58:34;4.37;;;2.20;;
72882;SDS011;61017;37.812;-122.286;2023-11-18T02:01:39;5.95;;;2.42;;
72882;SDS011;61017;37.812;-122.286;2023-11-18T02:03:11;3.75;;;2.33;;
72882;SDS011;61017;37.812;-122.286;2023-11-18T02:04:43;4.90;;;2.25;;
72882;SDS011;61017;37.812;-122.286;2023-11-18T02:06:14;5.75;;;2.80;;
72882;SDS011;61017;37.812;-122.286;2023-11-18T02:07:46;5.30;;;2.45;;
72882;SDS011;61017;37.812;-122.286;2023-11-18T02:09:19;4.38;;;2.50;;
72882;SDS011;61017;37.812;-122.286;2023-11-18T02:10:57;4.25;;;2.47;;
72882;SDS011;61017;37.812;-122.286;2023-11-18T02:12:58;4.30;;;2.25;;
72882;SDS011;61017;37.812;-122.286;2023-11-18T02:14:38;5.38;;;2.50;;
72882;SDS011;61017;37.812;-122.286;2023-11-18T02:16:14;6.50;;;2.40;;
72882;SDS011;61017;37.812;-122.286;2023-11-18T02:17:47;9.38;;;2.92;;
72882;SDS011;61017;37.812;-122.286;2023-11-18T02:19:23;6.70;;;2.85;;
72882;SDS011;61017;37.812;-122.286;2023-11-18T02:20:57;7.97;;;2.90;;
72882;SDS011;61017;37.812;-122.286;2023-11-18T02:22:43;6.03;;;2.88;;
72882;SDS011;61017;37.812;-122.286;2023-11-18T02:24:31;8.80;;;3.33;;
72882;SDS011;61017;37.812;-122.286;2023-11-18T02:26:05;10.75;;;3.10;;
72882;SDS011;61017;37.812;-122.286;2023-11-18T02:29:10;8.90;;;3.05;;
72882;SDS011;61017;37.812;-122.286;2023-11-18T02:30:42;18.00;;;3.00;;
72882;SDS011;61017;37.812;-122.286;2023-11-18T02:34:16;45.75;;;4.13;;
72882;SDS011;61017;37.812;-122.286;2023-11-18T02:35:59;45.63;;;4.05;;
72882;SDS011;61017;37.812;-122.286;2023-11-18T02:37:42;30.50;;;4.03;;
72882;SDS011;61017;37.812;-122.286;2023-11-18T02:39:23;36.17;;;4.03;;
72882;SDS011;61017;37.812;-122.286;2023-11-18T02:40:59;45.72;;;4.75;;
72882;SDS011;61017;37.812;-122.286;2023-11-18T02:42:37;41.60;;;5.03;;
72882;SDS011;61017;37.812;-122.286;2023-11-18T02:44:12;31.10;;;4.22;;
72882;SDS011;61017;37.812;-122.286;2023-11-18T02:45:46;31.90;;;3.80;;
72882;SDS011;61017;37.812;-122.286;2023-11-18T02:47:19;35.40;;;4.38;;
72882;SDS011;61017;37.812;-122.286;2023-11-18T02:48:52;26.13;;;3.80;;
72882;SDS011;61017;37.812;-122.286;2023-11-18T02:50:24;18.15;;;3.38;;
72882;SDS011;61017;37.812;-122.286;2023-11-18T02:53:27;19.67;;;3.67;;
72882;SDS011;61017;37.812;-122.286;2023-11-18T02:54:59;15.57;;;3.28;;
72882;SDS011;61017;37.812;-122.286;2023-11-18T02:56:32;20.13;;;3.70;;
72882;SDS011;61017;37.812;-122.286;2023-11-18T02:58:04;18.10;;;3.60;;
72882;SDS011;61017;37.812;-122.286;2023-11-18T02:59:36;11.48;;;3.13;;
72882;SDS011;61017;37.812;-122.286;2023-11-18T03:01:08;13.25;;;3.53;;
72882;SDS011;61017;37.812;-122.286;2023-11-18T03:02:40;11.73;;;3.20;;
72882;SDS011;61017;37.812;-122.286;2023-11-18T03:04:11;10.93;;;3.10;;
72882;SDS011;61017;37.812;-122.286;2023-11-18T03:05:44;15.95;;;3.08;;
72882;SDS011;61017;37.812;-122.286;2023-11-18T03:07:15;11.23;;;3.40;;
72882;SDS011;61017;37.812;-122.286;2023-11-18T03:08:47;13.63;;;3.25;;
72882;SDS011;61017;37.812;-122.286;2023-11-18T03:10:20;10.77;;;3.00;;
72882;SDS011;61017;37.812;-122.286;2023-11-18T03:13:24;13.63;;;3.58;;
72882;SDS011;61017;37.812;-122.286;2023-11-18T03:14:57;10.10;;;2.88;;
72882;SDS011;61017;37.812;-122.286;2023-11-18T03:16:29;9.93;;;2.95;;
72882;SDS011;61017;37.812;-122.286;2023-11-18T03:18:01;9.35;;;2.60;;
72882;SDS011;61017;37.812;-122.286;2023-11-18T03:19:33;11.35;;;2.75;;
72882;SDS011;61017;37.812;-122.286;2023-11-18T03:21:05;9.65;;;2.85;;
72882;SDS011;61017;37.812;-122.286;2023-11-18T03:22:42;11.43;;;3.30;;
72882;SDS011;61017;37.812;-122.286;2023-11-18T03:24:17;9.43;;;2.65;;
72882;SDS011;61017;37.812;-122.286;2023-11-18T03:25:49;8.55;;;2.78;;
72882;SDS011;61017;37.812;-122.286;2023-11-18T03:27:21;8.63;;;2.70;;
72882;SDS011;61017;37.812;-122.286;2023-11-18T03:28:53;6.20;;;2.37;;
72882;SDS011;61017;37.812;-122.286;2023-11-18T03:30:25;7.15;;;2.58;;
72882;SDS011;61017;37.812;-122.286;2023-11-18T03:31:57;7.78;;;2.85;;
72882;SDS011;61017;37.812;-122.286;2023-11-18T03:33:29;11.25;;;2.60;;
72882;SDS011;61017;37.812;-122.286;2023-11-18T03:35:01;6.30;;;2.40;;
72882;SDS011;61017;37.812;-122.286;2023-11-18T03:36:33;9.40;;;2.75;;
72882;SDS011;61017;37.812;-122.286;2023-11-18T03:38:05;7.93;;;2.60;;
72882;SDS011;61017;37.812;-122.286;2023-11-18T03:39:36;8.77;;;2.60;;
72882;SDS011;61017;37.812;-122.286;2023-11-18T03:41:08;6.47;;;2.70;;
72882;SDS011;61017;37.812;-122.286;2023-11-18T03:42:42;7.50;;;2.53;;
72882;SDS011;61017;37.812;-122.286;2023-11-18T03:44:14;7.38;;;2.80;;
72882;SDS011;61017;37.812;-122.286;2023-11-18T03:45:45;6.47;;;2.60;;
72882;SDS011;61017;37.812;-122.286;2023-11-18T03:47:17;5.95;;;2.38;;
72882;SDS011;61017;37.812;-122.286;2023-11-18T03:48:49;7.55;;;2.78;;
72882;SDS011;61017;37.812;-122.286;2023-11-18T03:50:20;5.13;;;2.30;;
72882;SDS011;61017;37.812;-122.286;2023-11-18T03:51:52;7.57;;;2.63;;
72882;SDS011;61017;37.812;-122.286;2023-11-18T03:53:24;7.28;;;2.63;;
72882;SDS011;61017;37.812;-122.286;2023-11-18T03:54:55;8.00;;;2.75;;
72882;SDS011;61017;37.812;-122.286;2023-11-18T03:56:26;6.63;;;2.75;;
72882;SDS011;61017;37.812;-122.286;2023-11-18T03:57:58;6.82;;;2.72;;
72882;SDS011;61017;37.812;-122.286;2023-11-18T03:59:30;7.28;;;2.45;;
72882;SDS011;61017;37.812;-122.286;2023-11-18T04:01:01;5.93;;;2.70;;
72882;SDS011;61017;37.812;-122.286;2023-11-18T04:02:33;6.85;;;2.85;;
72882;SDS011;61017;37.812;-122.286;2023-11-18T04:04:04;7.03;;;2.80;;
72882;SDS011;61017;37.812;-122.286;2023-11-18T04:05:36;4.85;;;2.67;;
72882;SDS011;61017;37.812;-122.286;2023-11-18T04:07:08;6.18;;;2.67;;
72882;SDS011;61017;37.812;-122.286;2023-11-18T04:08:42;7.68;;;3.05;;
72882;SDS011;61017;37.812;-122.286;2023-11-18T04:10:17;7.07;;;2.95;;
72882;SDS011;61017;37.812;-122.286;2023-11-18T04:11:48;6.07;;;2.92;;
72882;SDS011;61017;37.812;-122.286;2023-11-18T04:13:20;7.38;;;2.80;;
72882;SDS011;61017;37.812;-122.286;2023-11-18T04:14:52;5.15;;;2.50;;
72882;SDS011;61017;37.812;-122.286;2023-11-18T04:16:23;6.10;;;2.58;;
72882;SDS011;61017;37.812;-122.286;2023-11-18T04:17:55;5.88;;;2.75;;
72882;SDS011;61017;37.812;-122.286;2023-11-18T04:19:26;6.85;;;2.85;;
72882;SDS011;61017;37.812;-122.286;2023-11-18T04:20:57;6.38;;;2.70;;
72882;SDS011;61017;37.812;-122.286;2023-11-18T04:22:29;6.97;;;2.67;;
72882;SDS011;61017;37.812;-122.286;2023-11-18T04:24:00;5.53;;;2.88;;
72882;SDS011;61017;37.812;-122.286;2023-11-18T04:25:32;5.68;;;2.65;;
72882;SDS011;61017;37.812;-122.286;2023-11-18T04:27:03;5.07;;;2.63;;
72882;SDS011;61017;37.812;-122.286;2023-11-18T04:28:35;6.25;;;2.70;;
72882;SDS011;61017;37.812;-122.286;2023-11-18T04:30:07;6.20;;;2.75;;
72882;SDS011;61017;37.812;-122.286;2023-11-18T04:31:39;4.32;;;2.35;;
72882;SDS011;61017;37.812;-122.286;2023-11-18T04:33:11;4.97;;;2.70;;
72882;SDS011;61017;37.812;-122.286;2023-11-18T04:34:42;5.45;;;2.42;;
72882;SDS011;61017;37.812;-122.286;2023-11-18T04:36:14;5.95;;;2.55;;
72882;SDS011;61017;37.812;-122.286;2023-11-18T04:37:45;6.35;;;2.78;;
72882;SDS011;61017;37.812;-122.286;2023-11-18T04:39:17;5.65;;;2.53;;
72882;SDS011;61017;37.812;-122.286;2023-11-18T04:40:48;5.20;;;2.50;;
72882;SDS011;61017;37.812;-122.286;2023-11-18T04:42:20;7.45;;;2.55;;
72882;SDS011;61017;37.812;-122.286;2023-11-18T04:43:51;4.80;;;2.65;;
72882;SDS011;61017;37.812;-122.286;2023-11-18T04:45:23;6.45;;;2.78;;
72882;SDS011;61017;37.812;-122.286;2023-11-18T04:46:55;5.50;;;2.63;;
72882;SDS011;61017;37.812;-122.286;2023-11-18T04:48:26;5.50;;;2.55;;
72882;SDS011;61017;37.812;-122.286;2023-11-18T04:49:58;5.18;;;2.35;;
72882;SDS011;61017;37.812;-122.286;2023-11-18T04:51:29;4.72;;;2.42;;
72882;SDS011;61017;37.812;-122.286;2023-11-18T04:53:01;5.45;;;2.50;;
72882;SDS011;61017;37.812;-122.286;2023-11-18T04:54:32;6.05;;;2.65;;
72882;SDS011;61017;37.812;-122.286;2023-11-18T04:56:04;6.63;;;2.60;;
72882;SDS011;61017;37.812;-122.286;2023-11-18T04:57:36;5.05;;;2.20;;
72882;SDS011;61017;37.812;-122.286;2023-11-18T04:59:07;4.50;;;2.25;;
72882;SDS011;61017;37.812;-122.286;2023-11-18T05:00:39;13.70;;;2.45;;
72882;SDS011;61017;37.812;-122.286;2023-11-18T05:02:10;21.50;;;3.00;;
72882;SDS011;61017;37.812;-122.286;2023-11-18T05:03:42;24.30;;;3.33;;
72882;SDS011;61017;37.812;-122.286;2023-11-18T05:05:14;34.33;;;3.72;;
72882;SDS011;61017;37.812;-122.286;2023-11-18T05:06:46;30.73;;;3.42;;
72882;SDS011;61017;37.812;-122.286;2023-11-18T05:08:20;16.77;;;3.30;;
72882;SDS011;61017;37.812;-122.286;2023-11-18T05:09:52;23.75;;;3.13;;
72882;SDS011;61017;37.812;-122.286;2023-11-18T05:11:23;34.35;;;4.65;;
72882;SDS011;61017;37.812;-122.286;2023-11-18T05:12:55;35.25;;;4.85;;
72882;SDS011;61017;37.812;-122.286;2023-11-18T05:14:26;35.97;;;4.43;;
72882;SDS011;61017;37.812;-122.286;2023-11-18T05:15:58;29.02;;;3.70;;
72882;SDS011;61017;37.812;-122.286;2023-11-18T05:17:30;24.83;;;4.55;;
72882;SDS011;61017;37.812;-122.286;2023-11-18T05:19:01;22.40;;;3.50;;
72882;SDS011;61017;37.812;-122.286;2023-11-18T05:20:33;19.65;;;4.07;;
72882;SDS011;61017;37.812;-122.286;2023-11-18T05:22:05;14.18;;;2.97;;
72882;SDS011;61017;37.812;-122.286;2023-11-18T05:23:36;19.30;;;3.42;;
72882;SDS011;61017;37.812;-122.286;2023-11-18T05:25:08;16.63;;;3.47;;
72882;SDS011;61017;37.812;-122.286;2023-11-18T05:26:40;13.13;;;3.20;;
72882;SDS011;61017;37.812;-122.286;2023-11-18T05:28:11;20.90;;;3.67;;
72882;SDS011;61017;37.812;-122.286;2023-11-18T05:29:43;18.58;;;4.18;;
72882;SDS011;61017;37.812;-122.286;2023-11-18T05:31:15;13.60;;;3.45;;
72882;SDS011;61017;37.812;-122.286;2023-11-18T05:32:46;12.27;;;3.28;;
72882;SDS011;61017;37.812;-122.286;2023-11-18T05:34:18;12.20;;;3.33;;
72882;SDS011;61017;37.812;-122.286;2023-11-18T05:35:50;11.05;;;3.25;;
72882;SDS011;61017;37.812;-122.286;2023-11-18T05:37:21;14.70;;;3.58;;
72882;SDS011;61017;37.812;-122.286;2023-11-18T05:38:53;14.63;;;3.65;;
72882;SDS011;61017;37.812;-122.286;2023-11-18T05:40:26;12.25;;;3.60;;
72882;SDS011;61017;37.812;-122.286;2023-11-18T05:41:57;11.85;;;3.72;;
72882;SDS011;61017;37.812;-122.286;2023-11-18T05:43:30;15.00;;;3.50;;
72882;SDS011;61017;37.812;-122.286;2023-11-18T05:45:04;11.55;;;4.15;;
72882;SDS011;61017;37.812;-122.286;2023-11-18T05:46:36;10.95;;;4.10;;
72882;SDS011;61017;37.812;-122.286;2023-11-18T05:48:07;8.25;;;3.83;;
72882;SDS011;61017;37.812;-122.286;2023-11-18T05:49:39;9.98;;;3.97;;
72882;SDS011;61017;37.812;-122.286;2023-11-18T05:51:11;10.05;;;3.78;;
72882;SDS011;61017;37.812;-122.286;2023-11-18T05:52:43;13.80;;;3.97;;
72882;SDS011;61017;37.812;-122.286;2023-11-18T05:54:14;9.98;;;4.32;;
72882;SDS011;61017;37.812;-122.286;2023-11-18T05:55:46;10.10;;;3.80;;
72882;SDS011;61017;37.812;-122.286;2023-11-18T05:57:18;10.75;;;3.50;;
72882;SDS011;61017;37.812;-122.286;2023-11-18T05:58:49;12.60;;;4.00;;
72882;SDS011;61017;37.812;-122.286;2023-11-18T06:00:23;8.88;;;3.22;;
72882;SDS011;61017;37.812;-122.286;2023-11-18T06:01:55;8.80;;;4.03;;
72882;SDS011;61017;37.812;-122.286;2023-11-18T06:03:26;10.07;;;3.80;;
72882;SDS011;61017;37.812;-122.286;2023-11-18T06:04:58;11.25;;;3.67;;
72882;SDS011;61017;37.812;-122.286;2023-11-18T06:06:30;9.00;;;3.47;;
72882;SDS011;61017;37.812;-122.286;2023-11-18T06:08:02;7.43;;;3.63;;
72882;SDS011;61017;37.812;-122.286;2023-11-18T06:09:33;8.38;;;3.88;;
72882;SDS011;61017;37.812;-122.286;2023-11-18T06:11:05;8.15;;;3.50;;
72882;SDS011;61017;37.812;-122.286;2023-11-18T06:12:37;7.00;;;3.40;;
72882;SDS011;61017;37.812;-122.286;2023-11-18T06:14:08;7.43;;;3.38;;
72882;SDS011;61017;37.812;-122.286;2023-11-18T06:15:40;6.75;;;3.40;;
72882;SDS011;61017;37.812;-122.286;2023-11-18T06:17:11;7.53;;;3.35;;
72882;SDS011;61017;37.812;-122.286;2023-11-18T06:18:43;6.22;;;3.10;;
72882;SDS011;61017;37.812;-122.286;2023-11-18T06:20:15;9.95;;;3.75;;
72882;SDS011;61017;37.812;-122.286;2023-11-18T06:21:46;9.23;;;3.30;;
72882;SDS011;61017;37.812;-122.286;2023-11-18T06:23:18;8.65;;;3.55;;
72882;SDS011;61017;37.812;-122.286;2023-11-18T06:24:49;8.52;;;3.33;;
72882;SDS011;61017;37.812;-122.286;2023-11-18T06:26:21;9.35;;;3.40;;
72882;SDS011;61017;37.812;-122.286;2023-11-18T06:27:53;7.28;;;3.50;;
72882;SDS011;61017;37.812;-122.286;2023-11-18T06:29:24;11.20;;;3.40;;
72882;SDS011;61017;37.812;-122.286;2023-11-18T06:30:56;6.03;;;3.03;;
72882;SDS011;61017;37.812;-122.286;2023-11-18T06:32:27;7.80;;;3.13;;
72882;SDS011;61017;37.812;-122.286;2023-11-18T06:33:59;6.57;;;3.30;;
72882;SDS011;61017;37.812;-122.286;2023-11-18T06:35:30;8.15;;;3.47;;
72882;SDS011;61017;37.812;-122.286;2023-11-18T06:37:02;9.40;;;3.30;;
72882;SDS011;61017;37.812;-122.286;2023-11-18T06:38:33;7.78;;;3.17;;
72882;SDS011;61017;37.812;-122.286;2023-11-18T06:40:05;6.65;;;3.30;;
72882;SDS011;61017;37.812;-122.286;2023-11-18T06:41:37;7.10;;;3.20;;
72882;SDS011;61017;37.812;-122.286;2023-11-18T06:43:08;7.93;;;3.47;;
72882;SDS011;61017;37.812;-122.286;2023-11-18T06:44:40;5.45;;;2.92;;
72882;SDS011;61017;37.812;-122.286;2023-11-18T06:46:11;6.90;;;3.38;;
72882;SDS011;61017;37.812;-122.286;2023-11-18T06:47:43;7.63;;;3.28;;
72882;SDS011;61017;37.812;-122.286;2023-11-18T06:49:14;6.95;;;3.33;;
72882;SDS011;61017;37.812;-122.286;2023-11-18T06:50:46;7.47;;;3.30;;
72882;SDS011;61017;37.812;-122.286;2023-11-18T06:52:17;5.68;;;3.13;;
72882;SDS011;61017;37.812;-122.286;2023-11-18T06:53:49;4.93;;;2.92;;
72882;SDS011;61017;37.812;-122.286;2023-11-18T06:55:21;6.15;;;3.20;;
72882;SDS011;61017;37.812;-122.286;2023-11-18T06:56:52;6.38;;;3.10;;
72882;SDS011;61017;37.812;-122.286;2023-11-18T06:58:24;11.02;;;2.90;;
72882;SDS011;61017;37.812;-122.286;2023-11-18T06:59:55;6.78;;;2.83;;
72882;SDS011;61017;37.812;-122.286;2023-11-18T07:01:27;6.82;;;3.00;;
72882;SDS011;61017;37.812;-122.286;2023-11-18T07:02:58;5.55;;;3.20;;
72882;SDS011;61017;37.812;-122.286;2023-11-18T07:04:30;5.28;;;2.90;;
72882;SDS011;61017;37.812;-122.286;2023-11-18T07:06:04;4.32;;;2.50;;
72882;SDS011;61017;37.812;-122.286;2023-11-18T07:07:36;7.68;;;3.08;;
72882;SDS011;61017;37.812;-122.286;2023-11-18T07:09:08;4.38;;;2.70;;
72882;SDS011;61017;37.812;-122.286;2023-11-18T07:10:40;4.95;;;2.58;;
72882;SDS011;61017;37.812;-122.286;2023-11-18T07:12:11;6.35;;;2.70;;
72882;SDS011;61017;37.812;-122.286;2023-11-18T07:13:43;7.00;;;2.90;;
72882;SDS011;61017;37.812;-122.286;2023-11-18T07:15:16;6.95;;;3.10;;
72882;SDS011;61017;37.812;-122.286;2023-11-18T07:16:47;5.65;;;2.63;;
72882;SDS011;61017;37.812;-122.286;2023-11-18T07:18:19;7.15;;;3.10;;
72882;SDS011;61017;37.812;-122.286;2023-11-18T07:19:50;4.05;;;2.53;;
72882;SDS011;61017;37.812;-122.286;2023-11-18T07:21:22;5.03;;;2.78;;
72882;SDS011;61017;37.812;-122.286;2023-11-18T07:22:53;8.02;;;2.80;;
72882;SDS011;61017;37.812;-122.286;2023-11-18T07:24:25;5.50;;;2.60;;
72882;SDS011;61017;37.812;-122.286;2023-11-18T07:25:56;5.70;;;2.70;;
72882;SDS011;61017;37.812;-122.286;2023-11-18T07:27:28;5.10;;;2.42;;
72882;SDS011;61017;37.812;-122.286;2023-11-18T07:28:59;5.22;;;2.45;;
72882;SDS011;61017;37.812;-122.286;2023-11-18T07:30:31;5.07;;;2.50;;
72882;SDS011;61017;37.812;-122.286;2023-11-18T07:32:02;6.60;;;2.55;;
72882;SDS011;61017;37.812;-122.286;2023-11-18T07:33:34;4.78;;;2.47;;
72882;SDS011;61017;37.812;-122.286;2023-11-18T07:35:06;4.68;;;2.47;;
72882;SDS011;61017;37.812;-122.286;2023-11-18T07:36:37;4.15;;;2.42;;
72882;SDS011;61017;37.812;-122.286;2023-11-18T07:38:09;3.75;;;2.10;;
72882;SDS011;61017;37.812;-122.286;2023-11-18T07:39:40;3.92;;;2.33;;
72882;SDS011;61017;37.812;-122.286;2023-11-18T07:41:12;4.13;;;2.38;;
72882;SDS011;61017;37.812;-122.286;2023-11-18T07:42:43;4.45;;;2.50;;
72882;SDS011;61017;37.812;-122.286;2023-11-18T07:44:15;5.32;;;2.53;;
72882;SDS011;61017;37.812;-122.286;2023-11-18T07:45:47;5.13;;;2.58;;
72882;SDS011;61017;37.812;-122.286;2023-11-18T07:47:18;5.95;;;2.60;;
72882;SDS011;61017;37.812;-122.286;2023-11-18T07:48:50;4.45;;;2.42;;
72882;SDS011;61017;37.812;-122.286;2023-11-18T07:50:22;3.70;;;2.40;;
72882;SDS011;61017;37.812;-122.286;2023-11-18T07:51:54;5.05;;;2.38;;
72882;SDS011;61017;37.812;-122.286;2023-11-18T07:53:25;4.13;;;2.45;;
72882;SDS011;61017;37.812;-122.286;2023-11-18T07:54:57;4.15;;;2.63;;
72882;SDS011;61017;37.812;-122.286;2023-11-18T07:56:28;5.25;;;2.25;;
72882;SDS011;61017;37.812;-122.286;2023-11-18T07:58:03;4.15;;;2.17;;
72882;SDS011;61017;37.812;-122.286;2023-11-18T07:59:34;3.97;;;2.20;;
72882;SDS011;61017;37.812;-122.286;2023-11-18T08:01:06;4.82;;;2.40;;
72882;SDS011;61017;37.812;-122.286;2023-11-18T08:02:38;3.90;;;2.20;;
72882;SDS011;61017;37.812;-122.286;2023-11-18T08:04:10;3.80;;;2.00;;
72882;SDS011;61017;37.812;-122.286;2023-11-18T08:05:43;3.78;;;2.05;;
72882;SDS011;61017;37.812;-122.286;2023-11-18T08:07:15;4.13;;;2.22;;
72882;SDS011;61017;37.812;-122.286;2023-11-18T08:08:47;3.58;;;2.00;;
72882;SDS011;61017;37.812;-122.286;2023-11-18T08:10:18;3.63;;;2.20;;
72882;SDS011;61017;37.812;-122.286;2023-11-18T08:11:50;4.20;;;2.35;;
72882;SDS011;61017;37.812;-122.286;2023-11-18T08:13:21;3.92;;;2.20;;
72882;SDS011;61017;37.812;-122.286;2023-11-18T08:14:53;4.18;;;2.40;;
72882;SDS011;61017;37.812;-122.286;2023-11-18T08:16:24;3.75;;;2.10;;
72882;SDS011;61017;37.812;-122.286;2023-11-18T08:17:56;2.92;;;2.08;;
72882;SDS011;61017;37.812;-122.286;2023-11-18T08:19:27;3.03;;;1.95;;
72882;SDS011;61017;37.812;-122.286;2023-11-18T08:20:59;4.63;;;2.17;;
72882;SDS011;61017;37.812;-122.286;2023-11-18T08:22:31;3.55;;;2.20;;
72882;SDS011;61017;37.812;-122.286;2023-11-18T08:24:02;4.05;;;2.20;;
72882;SDS011;61017;37.812;-122.286;2023-11-18T08:25:35;3.85;;;2.20;;
72882;SDS011;61017;37.812;-122.286;2023-11-18T08:27:07;4.28;;;2.20;;
72882;SDS011;61017;37.812;-122.286;2023-11-18T08:28:38;4.40;;;2.20;;
72882;SDS011;61017;37.812;-122.286;2023-11-18T08:30:10;3.28;;;2.00;;
72882;SDS011;61017;37.812;-122.286;2023-11-18T08:31:42;3.83;;;2.07;;
72882;SDS011;61017;37.812;-122.286;2023-11-18T08:33:14;3.55;;;2.10;;
72882;SDS011;61017;37.812;-122.286;2023-11-18T08:34:45;3.58;;;2.05;;
72882;SDS011;61017;37.812;-122.286;2023-11-18T08:36:17;3.17;;;1.80;;
72882;SDS011;61017;37.812;-122.286;2023-11-18T08:37:48;2.83;;;1.80;;
72882;SDS011;61017;37.812;-122.286;2023-11-18T08:39:20;3.70;;;2.10;;
72882;SDS011;61017;37.812;-122.286;2023-11-18T08:40:51;3.58;;;1.80;;
72882;SDS011;61017;37.812;-122.286;2023-11-18T08:42:23;4.07;;;1.90;;
72882;SDS011;61017;37.812;-122.286;2023-11-18T08:43:54;3.38;;;1.83;;
72882;SDS011;61017;37.812;-122.286;2023-11-18T08:45:26;3.13;;;2.00;;
72882;SDS011;61017;37.812;-122.286;2023-11-18T08:48:29;3.97;;;2.05;;
72882;SDS011;61017;37.812;-122.286;2023-11-18T08:50:01;3.40;;;1.77;;
72882;SDS011;61017;37.812;-122.286;2023-11-18T08:51:33;3.25;;;1.90;;
72882;SDS011;61017;37.812;-122.286;2023-11-18T08:53:04;3.70;;;1.98;;
72882;SDS011;61017;37.812;-122.286;2023-11-18T08:54:36;4.13;;;1.80;;
72882;SDS011;61017;37.812;-122.286;2023-11-18T08:56:08;3.22;;;1.80;;
72882;SDS011;61017;37.812;-122.286;2023-11-18T08:57:40;4.03;;;1.73;;
72882;SDS011;61017;37.812;-122.286;2023-11-18T08:59:12;3.20;;;2.00;;
72882;SDS011;61017;37.812;-122.286;2023-11-18T09:00:43;4.78;;;1.90;;